Weather at Barrie-Orillia (Lake Simcoe Regional Airport)

Public forecast

Using degrees Celsius for public forecast. Weather courtesy of forecast.io.

Closest aviation weather report (METAR) to Barrie-Orillia (Lake Simcoe Regional Airport)

Closest report is CFB Borden, 20.0 nm (37.0 km) SW. Retrieved 2020/09/26 17:00 UTC (8 minutes ago):

CYBN 261700Z AUTO 20011G16KT 9SM FEW048 25/15 A2988 RMK SLP117

Closest aviation forecast (TAF) to Barrie-Orillia (Lake Simcoe Regional Airport)

Forecast is more than 12 hours old.

Closest forecast is CFB Borden, 20.0 nm (37.0 km) SW. Retrieved 2020/09/25 18:33 UTC (23 hours ago):

TAF TAF CYBN 251730Z 2518/2606 18010KT P6SM SKC BECMG 2600/2602 18005KT RMK FCST BASED ON AUTO OBS NXT FCST BY 260000Z